createdAt,value
2022-12-01T01:07:05.640Z,127.27
2022-12-01T01:50:30.995Z,139.70
2022-12-01T01:53:19.980Z,126.77
2022-12-01T01:56:12.411Z,130.13
2022-12-01T01:59:02.453Z,133.07
2022-12-01T02:02:03.991Z,140.93
2022-12-01T02:05:00.594Z,135.93
2022-12-01T02:11:19.300Z,149.10
2022-12-01T02:14:17.584Z,156.00
2022-12-01T02:17:21.112Z,145.57
2022-12-01T02:20:35.551Z,150.73
2022-12-01T02:23:59.204Z,132.53
2022-12-01T02:26:53.170Z,151.53
2022-12-01T02:30:09.147Z,146.63
2022-12-01T02:33:07.448Z,141.77
2022-12-01T02:36:02.912Z,146.80
2022-12-01T02:38:58.186Z,135.63
2022-12-01T02:41:51.943Z,143.67
2022-12-01T02:44:44.421Z,135.47
2022-12-01T02:47:34.673Z,139.33
2022-12-01T02:50:28.257Z,156.27
2022-12-01T02:53:21.139Z,155.53
2022-12-01T02:56:13.128Z,174.73
2022-12-01T02:59:01.441Z,154.03
2022-12-01T03:02:02.050Z,142.10
2022-12-01T03:05:02.208Z,143.73
2022-12-01T03:08:01.968Z,152.20
2022-12-01T03:11:03.663Z,141.90
2022-12-01T03:17:00.310Z,144.43
2022-12-01T03:19:56.272Z,165.00
2022-12-01T03:22:55.845Z,143.03
2022-12-01T03:25:53.230Z,163.43
2022-12-01T03:28:47.946Z,150.13
2022-12-01T03:31:46.010Z,167.53
2022-12-01T03:34:44.616Z,159.60
2022-12-01T03:37:41.083Z,154.20
2022-12-01T03:40:41.895Z,151.80
2022-12-01T03:43:45.182Z,150.80
2022-12-01T03:46:45.756Z,160.00
2022-12-01T03:49:37.305Z,151.43
2022-12-01T03:52:40.662Z,149.90
2022-12-01T04:14:00.493Z,165.33
2022-12-01T04:33:45.384Z,156.23
2022-12-01T04:36:36.962Z,149.20
2022-12-01T04:39:26.389Z,167.97
2022-12-01T04:42:15.291Z,154.43
2022-12-01T04:45:04.684Z,174.77
2022-12-01T04:47:55.345Z,161.67
2022-12-01T04:50:51.493Z,165.07
2022-12-01T04:53:44.402Z,150.40
2022-12-01T04:56:35.250Z,160.23
2022-12-01T04:59:24.254Z,143.83
2022-12-01T05:02:15.819Z,146.40
2022-12-01T05:05:20.231Z,149.83
2022-12-01T05:08:29.263Z,156.80
2022-12-01T05:11:37.681Z,163.40
2022-12-01T05:14:50.590Z,155.07
2022-12-01T05:17:52.717Z,163.10
2022-12-01T05:21:06.637Z,162.87
2022-12-01T05:24:19.130Z,161.70
2022-12-01T05:27:22.389Z,145.40
2022-12-01T05:30:38.734Z,151.33
2022-12-01T05:33:35.178Z,144.60
2022-12-01T05:36:33.134Z,154.87
2022-12-01T05:39:31.983Z,148.53
2022-12-01T05:42:33.832Z,145.50
2022-12-01T05:45:38.717Z,163.10
2022-12-01T05:48:32.084Z,162.33
2022-12-01T05:51:34.708Z,148.13
2022-12-01T05:54:39.801Z,149.00
2022-12-01T05:57:34.323Z,153.63
2022-12-01T06:00:25.409Z,160.43
2022-12-01T06:03:13.721Z,162.03
2022-12-01T06:06:02.104Z,151.73
2022-12-01T06:08:50.644Z,145.43
2022-12-01T06:11:40.827Z,140.30
2022-12-01T06:14:44.792Z,138.40
2022-12-01T06:17:40.179Z,144.57
2022-12-01T06:20:33.467Z,153.03
2022-12-01T06:23:24.301Z,148.63
2022-12-01T06:26:17.427Z,131.83
2022-12-01T06:29:07.109Z,142.70
2022-12-01T06:31:57.589Z,144.30
2022-12-01T06:34:46.043Z,143.13
2022-12-01T06:37:37.691Z,141.73
2022-12-01T06:40:27.152Z,151.37
2022-12-01T06:43:15.312Z,128.60
2022-12-01T06:46:06.532Z,139.47
2022-12-01T06:48:55.001Z,150.37
2022-12-01T06:54:56.282Z,143.90
2022-12-01T06:57:44.889Z,142.10
2022-12-01T07:00:35.436Z,140.93
2022-12-01T07:03:25.321Z,140.13
2022-12-01T07:06:13.587Z,141.20
2022-12-01T07:09:02.980Z,140.93
2022-12-01T07:11:51.249Z,136.03
2022-12-01T07:14:40.005Z,141.83
2022-12-01T07:17:30.724Z,170.40
2022-12-01T07:20:20.376Z,151.63
2022-12-01T07:23:08.792Z,172.20
2022-12-01T07:26:01.365Z,158.63
2022-12-01T07:28:49.951Z,158.50
2022-12-01T07:31:39.563Z,179.70
2022-12-01T07:34:27.879Z,172.13
2022-12-01T07:37:19.978Z,171.40
2022-12-01T07:40:10.359Z,165.07
2022-12-01T07:42:58.797Z,188.23
2022-12-01T07:45:52.535Z,178.13
2022-12-01T07:48:41.969Z,185.80
2022-12-01T07:51:33.079Z,188.33
2022-12-01T07:54:23.281Z,175.20
2022-12-01T07:57:14.414Z,187.67
2022-12-01T08:00:04.002Z,190.10
2022-12-01T08:02:52.440Z,203.93
2022-12-01T08:05:40.750Z,197.10
2022-12-01T08:08:29.331Z,191.63
2022-12-01T08:11:21.044Z,205.50
2022-12-01T08:14:14.750Z,209.50
2022-12-01T08:17:12.617Z,209.57
2022-12-01T08:20:00.866Z,196.40
2022-12-01T08:41:23.562Z,190.67
2022-12-01T08:44:16.587Z,189.47
2022-12-01T08:47:18.874Z,192.63
2022-12-01T08:50:11.143Z,184.53
2022-12-01T08:52:59.832Z,173.77
2022-12-01T08:55:49.290Z,187.67
2022-12-01T08:58:43.088Z,183.57
2022-12-01T09:01:34.785Z,204.50
2022-12-01T09:04:30.516Z,202.07
2022-12-01T09:07:24.659Z,205.87
2022-12-01T09:10:15.173Z,195.37
2022-12-01T09:13:04.599Z,197.53
2022-12-01T09:16:00.439Z,212.80
2022-12-01T09:18:49.535Z,208.47
2022-12-01T09:21:39.439Z,201.43
2022-12-01T09:24:31.096Z,209.17
2022-12-01T09:27:20.435Z,187.57
2022-12-01T09:30:11.107Z,195.67
2022-12-01T09:33:06.685Z,197.70
2022-12-01T09:36:01.883Z,202.20
2022-12-01T09:38:50.866Z,180.97
2022-12-01T09:41:44.450Z,195.47
2022-12-01T09:44:42.176Z,187.97
2022-12-01T09:47:38.089Z,197.90
2022-12-01T09:50:30.355Z,197.70
2022-12-01T09:53:23.778Z,189.40
2022-12-01T09:56:22.112Z,197.10
2022-12-01T09:59:20.914Z,180.27
2022-12-01T10:02:26.897Z,163.30
2022-12-01T10:05:19.972Z,158.37
2022-12-01T10:08:16.094Z,169.60
2022-12-01T12:25:20.916Z,98.30
2022-12-01T14:20:49.929Z,92.57
2022-12-01T14:57:44.699Z,94.13
2022-12-01T15:00:36.813Z,97.17
2022-12-01T15:03:31.730Z,93.47
2022-12-01T15:06:22.344Z,88.47
2022-12-01T15:12:27.962Z,91.17
2022-12-01T15:15:24.178Z,91.00
2022-12-01T15:18:23.588Z,81.93
2022-12-01T15:21:14.974Z,90.97
2022-12-01T15:24:14.460Z,92.10
2022-12-01T15:27:04.196Z,82.27
2022-12-01T15:29:53.737Z,88.63
2022-12-01T15:32:45.931Z,91.40
2022-12-01T15:35:35.260Z,82.27
2022-12-01T15:38:27.339Z,99.03
2022-12-01T15:41:29.634Z,82.60
2022-12-01T15:44:21.970Z,86.00
2022-12-01T15:47:36.021Z,82.13
2022-12-01T15:50:31.296Z,77.13
2022-12-01T15:53:25.983Z,88.70
2022-12-01T15:56:14.773Z,87.77
2022-12-01T15:59:09.969Z,96.23
2022-12-01T16:01:58.651Z,84.87
2022-12-01T16:04:48.338Z,85.27
2022-12-01T16:32:25.048Z,97.87
2022-12-01T16:35:27.814Z,105.43
2022-12-01T16:38:20.933Z,94.87
2022-12-01T16:41:19.192Z,94.83
2022-12-01T16:47:23.070Z,89.40
2022-12-01T16:50:19.279Z,101.40
2022-12-01T16:53:14.276Z,93.63
2022-12-01T16:56:05.841Z,95.20
2022-12-01T16:58:55.358Z,95.37
2022-12-01T17:01:50.756Z,97.77
2022-12-01T17:04:41.612Z,103.37
2022-12-01T17:07:31.738Z,98.77
2022-12-01T17:10:22.365Z,104.33
2022-12-01T17:13:38.791Z,105.30
2022-12-01T17:16:29.991Z,86.93
2022-12-01T17:19:20.198Z,100.77
2022-12-01T17:22:15.133Z,102.60
2022-12-01T17:25:05.144Z,99.83
2022-12-01T17:27:54.152Z,93.43
2022-12-01T18:14:47.151Z,96.60
2022-12-01T22:12:23.878Z,94.60
2022-12-01T22:15:37.475Z,79.23
2022-12-01T22:18:29.024Z,73.97
2022-12-01T22:21:38.233Z,83.60
2022-12-01T22:24:30.738Z,71.90
2022-12-01T22:27:29.033Z,81.40
2022-12-01T22:30:22.489Z,80.93
2022-12-01T22:33:18.280Z,83.77
2022-12-01T22:36:21.195Z,79.80
2022-12-01T23:10:26.976Z,76.77
2022-12-01T23:13:19.940Z,79.57
2022-12-01T23:16:12.209Z,75.17
2022-12-01T23:19:01.111Z,72.13
2022-12-01T23:21:51.915Z,76.33
2022-12-01T23:24:41.106Z,75.77
2022-12-01T23:27:32.340Z,71.03
2022-12-01T23:30:22.507Z,77.30
2022-12-01T23:33:16.747Z,76.80
2022-12-01T23:36:12.042Z,77.90
2022-12-01T23:39:06.005Z,81.50
2022-12-01T23:41:54.562Z,71.53
2022-12-01T23:44:45.858Z,76.97
2022-12-01T23:47:34.218Z,72.13
2022-12-01T23:50:26.006Z,71.63
2022-12-01T23:53:27.807Z,74.13
2022-12-01T23:56:21.784Z,66.00
2022-12-01T23:59:13.841Z,80.80
